Time;durP1;ratioP1;P1;durP2;ratioP2;P2;SDS_P1;SDS_P2;PMS_P1;PMS_P2;Temp;Humidity;BMP_temperature;BMP_pressure;BME280_temperature;BME280_humidity;BME280_pressure;Samples;Min_cycle;Max_cycle;Signal;HPM_P1;HPM_P2
2022/06/21 00:01:20;;;;;;;;;;;27.40;45.20;;;;;;1537577;75;1699;-56
2022/06/21 00:03:23;;;;;;;;;;;27.40;45.20;;;;;;1532125;75;631;-57
2022/06/21 00:05:25;;;;;;;;;;;27.30;45.20;;;;;;1551618;75;702;-56
2022/06/21 00:07:28;;;;;;;;;;;27.40;45.20;;;;;;1545873;75;1131;-56
2022/06/21 00:09:29;;;;;;;;;;;27.40;45.20;;;;;;1536194;75;1975;-56
2022/06/21 00:11:33;;;;;;;;;;;27.30;45.20;;;;;;1543461;75;672;-56
2022/06/21 00:13:35;;;;;;;;;;;27.20;45.20;;;;;;1542165;75;656;-57
2022/06/21 00:15:36;;;;;;;;;;;27.30;45.20;;;;;;1550630;75;667;-57
2022/06/21 00:17:39;;;;;;;;;;;27.30;45.20;;;;;;1539734;74;1125;-57
2022/06/21 00:19:43;;;;;;;;;;;27.30;45.20;;;;;;1537939;75;708;-57
2022/06/21 00:21:45;;;;;;;;;;;27.30;45.20;;;;;;1535945;75;678;-57
2022/06/21 00:23:47;;;;;;;;;;;27.40;45.20;;;;;;1546288;75;679;-59
2022/06/21 00:25:49;;;;;;;;;;;27.40;45.20;;;;;;1535437;75;1147;-57
2022/06/21 00:27:51;;;;;;;;;;;27.30;45.20;;;;;;1530747;75;678;-57
2022/06/21 00:29:53;;;;;;;;;;;27.30;45.20;;;;;;1542965;75;1934;-57
2022/06/21 00:31:55;;;;;;;;;;;27.30;45.20;;;;;;1540287;76;672;-57
2022/06/21 00:33:57;;;;;;;;;;;27.30;45.20;;;;;;1550603;75;721;-57
2022/06/21 00:35:59;;;;;;;;;;;27.40;45.20;;;;;;1555642;75;1176;-57
2022/06/21 00:38:01;;;;;;;;;;;27.30;45.20;;;;;;1541599;75;751;-59
2022/06/21 00:40:04;;;;;;;;;;;27.40;45.20;;;;;;1548571;75;700;-59
2022/06/21 00:42:23;;;;;;;;;;;27.30;45.20;;;;;;1543921;75;1962;-57
2022/06/21 00:44:38;;;;;;;;;;;27.30;45.10;;;;;;1542728;75;654;-58
2022/06/21 00:46:42;;;;;;;;;;;27.30;45.20;;;;;;1548770;75;1136;-59
2022/06/21 00:48:44;;;;;;;;;;;27.30;45.10;;;;;;1545602;75;1977;-58
2022/06/21 00:50:47;;;;;;;;;;;27.30;45.20;;;;;;1545763;75;674;-58
2022/06/21 00:52:59;;;;;;;;;;;27.30;45.20;;;;;;1563313;75;724;-58
2022/06/21 00:55:03;;;;;;;;;;;27.30;45.10;;;;;;1548902;75;677;-58
2022/06/21 00:57:09;;;;;;;;;;;27.40;45.20;;;;;;1545167;75;1141;-57
2022/06/21 00:59:18;;;;;;;;;;;27.20;45.20;;;;;;1544916;75;1790;-57
2022/06/21 01:01:22;;;;;;;;;;;27.20;45.10;;;;;;1550166;75;684;-57
2022/06/21 01:03:25;;;;;;;;;;;27.20;45.10;;;;;;1569403;70;222326;-70
2022/06/21 01:05:28;;;;;;;;;;;27.20;45.20;;;;;;1617286;71;857;-71
2022/06/21 01:07:29;;;;;;;;;;;27.20;45.20;;;;;;1627754;71;714;-72
2022/06/21 01:09:33;;;;;;;;;;;27.20;45.20;;;;;;1613890;71;1912;-72
2022/06/21 01:11:45;;;;;;;;;;;27.20;45.20;;;;;;1585664;71;1024;-69
2022/06/21 01:13:47;;;;;;;;;;;27.20;45.20;;;;;;1613389;71;1206;-68
2022/06/21 01:15:50;;;;;;;;;;;27.30;45.20;;;;;;1609839;71;740;-68
2022/06/21 01:17:54;;;;;;;;;;;27.30;45.20;;;;;;1630483;71;738;-68
2022/06/21 01:20:00;;;;;;;;;;;27.30;45.20;;;;;;1615964;71;789;-68
2022/06/21 01:22:03;;;;;;;;;;;27.20;45.20;;;;;;1627512;71;787;-69
2022/06/21 01:24:18;;;;;;;;;;;27.20;45.20;;;;;;1626022;71;1135;-69
2022/06/21 01:26:39;;;;;;;;;;;27.20;45.20;;;;;;1618988;71;681;-68
2022/06/21 01:28:41;;;;;;;;;;;27.30;45.20;;;;;;1614766;71;1929;-69
2022/06/21 01:30:47;;;;;;;;;;;27.20;45.20;;;;;;1638854;71;759;-70
2022/06/21 01:32:50;;;;;;;;;;;27.30;45.20;;;;;;1613417;71;1873;-69
2022/06/21 01:34:53;;;;;;;;;;;27.30;45.20;;;;;;1616562;71;772;-69
2022/06/21 01:36:59;;;;;;;;;;;27.20;45.20;;;;;;1607378;71;759;-69
2022/06/21 01:39:12;;;;;;;;;;;27.20;45.20;;;;;;1625003;71;1151;-68
2022/06/21 01:41:15;;;;;;;;;;;27.20;45.20;;;;;;1605753;71;738;-69
2022/06/21 01:43:19;;;;;;;;;;;27.20;45.20;;;;;;1616309;71;1117;-69
2022/06/21 01:45:22;;;;;;;;;;;27.30;45.20;;;;;;1610674;71;1395;-68
2022/06/21 01:47:26;;;;;;;;;;;27.30;45.20;;;;;;1600379;71;1909;-68
2022/06/21 01:49:28;;;;;;;;;;;27.30;45.20;;;;;;1617667;71;1955;-69
2022/06/21 01:51:35;;;;;;;;;;;27.20;45.20;;;;;;1608270;71;676;-71
2022/06/21 01:53:37;;;;;;;;;;;27.20;45.20;;;;;;1615712;71;1146;-69
2022/06/21 01:55:45;;;;;;;;;;;27.20;45.20;;;;;;1619844;71;684;-69
2022/06/21 01:57:48;;;;;;;;;;;27.20;45.20;;;;;;1605365;71;721;-69
2022/06/21 01:59:50;;;;;;;;;;;27.30;45.20;;;;;;1623059;71;658;-71
2022/06/21 02:01:52;;;;;;;;;;;27.30;45.10;;;;;;1613735;71;680;-71
2022/06/21 02:03:54;;;;;;;;;;;27.30;45.10;;;;;;1620435;71;1118;-70
2022/06/21 02:05:57;;;;;;;;;;;27.20;45.10;;;;;;1605258;71;746;-70
2022/06/21 02:08:00;;;;;;;;;;;27.20;45.00;;;;;;1621175;71;779;-69
2022/06/21 02:10:10;;;;;;;;;;;27.30;45.10;;;;;;1625731;71;1913;-70
2022/06/21 02:12:13;;;;;;;;;;;27.20;45.00;;;;;;1618420;71;806;-70
2022/06/21 02:14:28;;;;;;;;;;;27.30;45.00;;;;;;1616486;71;1134;-72
2022/06/21 02:16:30;;;;;;;;;;;27.20;45.00;;;;;;1615551;71;642;-70
2022/06/21 02:18:33;;;;;;;;;;;27.20;45.00;;;;;;1614131;71;723;-70
2022/06/21 02:20:42;;;;;;;;;;;27.20;45.00;;;;;;1617162;71;683;-70
2022/06/21 02:22:44;;;;;;;;;;;27.20;45.00;;;;;;1609889;71;1110;-70
2022/06/21 02:24:46;;;;;;;;;;;27.20;45.00;;;;;;1616453;71;778;-70
2022/06/21 02:26:48;;;;;;;;;;;27.20;45.00;;;;;;1617653;71;702;-70
2022/06/21 02:28:50;;;;;;;;;;;27.30;44.90;;;;;;1633846;71;867;-72
2022/06/21 02:30:52;;;;;;;;;;;27.20;44.90;;;;;;1616506;71;1921;-69
2022/06/21 02:32:54;;;;;;;;;;;27.20;45.00;;;;;;1620977;71;1176;-71
2022/06/21 02:35:00;;;;;;;;;;;27.30;44.90;;;;;;1618778;71;662;-69
2022/06/21 02:37:02;;;;;;;;;;;27.20;45.00;;;;;;1604300;71;1958;-70
2022/06/21 02:39:05;;;;;;;;;;;27.20;44.90;;;;;;1625048;71;706;-70
2022/06/21 02:41:09;;;;;;;;;;;27.20;44.80;;;;;;1618929;71;1604;-70
2022/06/21 02:43:13;;;;;;;;;;;27.20;44.80;;;;;;1614027;71;1145;-72
2022/06/21 02:45:19;;;;;;;;;;;27.20;44.80;;;;;;1625964;71;1957;-70
2022/06/21 02:47:23;;;;;;;;;;;27.20;44.80;;;;;;1613241;71;818;-71
2022/06/21 02:49:36;;;;;;;;;;;27.20;44.80;;;;;;1619030;71;1912;-70
2022/06/21 02:51:42;;;;;;;;;;;27.20;44.80;;;;;;1587817;72;695;-71
2022/06/21 02:53:46;;;;;;;;;;;27.20;44.80;;;;;;1611859;71;1118;-70
2022/06/21 02:55:52;;;;;;;;;;;27.20;44.70;;;;;;1616242;71;1686;-69
2022/06/21 02:58:13;;;;;;;;;;;27.20;44.70;;;;;;1622644;71;696;-71
2022/06/21 03:00:18;;;;;;;;;;;27.20;44.70;;;;;;1612286;71;752;-70
2022/06/21 03:02:24;;;;;;;;;;;27.20;44.70;;;;;;1614721;71;721;-70
2022/06/21 03:04:28;;;;;;;;;;;27.10;44.70;;;;;;1606709;71;1051;-70
2022/06/21 03:06:30;;;;;;;;;;;27.20;44.70;;;;;;1618117;71;1045;-70
2022/06/21 03:08:32;;;;;;;;;;;27.20;44.70;;;;;;1622070;71;687;-71
2022/06/21 03:10:38;;;;;;;;;;;27.20;44.70;;;;;;1632306;71;1932;-70
2022/06/21 03:12:40;;;;;;;;;;;27.10;44.70;;;;;;1617418;71;1131;-68
2022/06/21 03:14:41;;;;;;;;;;;27.20;44.70;;;;;;1622111;71;760;-70
2022/06/21 03:16:43;;;;;;;;;;;27.20;44.70;;;;;;1623023;71;730;-70
2022/06/21 03:18:51;;;;;;;;;;;27.20;44.60;;;;;;1617375;71;655;-70
2022/06/21 03:20:52;;;;;;;;;;;27.20;44.60;;;;;;1633562;71;1130;-69
2022/06/21 03:22:54;;;;;;;;;;;27.20;44.50;;;;;;1615528;71;1239;-70
2022/06/21 03:24:57;;;;;;;;;;;27.20;44.50;;;;;;1623291;71;691;-70
2022/06/21 03:27:01;;;;;;;;;;;27.20;44.40;;;;;;1632012;71;682;-70
2022/06/21 03:29:03;;;;;;;;;;;27.20;44.50;;;;;;1618401;71;979;-70
2022/06/21 03:31:23;;;;;;;;;;;27.20;44.40;;;;;;1626214;71;1933;-71
2022/06/21 03:33:24;;;;;;;;;;;27.20;44.50;;;;;;1621286;71;1127;-71
2022/06/21 03:35:26;;;;;;;;;;;27.10;44.50;;;;;;1609922;71;680;-72
2022/06/21 03:37:28;;;;;;;;;;;27.20;44.60;;;;;;1617639;71;1541;-71
2022/06/21 03:41:50;;;;;;;;;;;27.20;44.50;;;;;;1602713;71;1664;-70
2022/06/21 03:43:54;;;;;;;;;;;27.20;44.50;;;;;;1603235;71;1168;-70
2022/06/21 03:45:56;;;;;;;;;;;27.10;44.40;;;;;;1610942;71;805;-70
2022/06/21 03:48:02;;;;;;;;;;;27.20;44.50;;;;;;1613797;71;772;-67
2022/06/21 03:50:22;;;;;;;;;;;27.10;44.40;;;;;;1607089;71;1946;-71
2022/06/21 03:52:44;;;;;;;;;;;27.20;44.40;;;;;;1618368;71;675;-70
2022/06/21 03:54:46;;;;;;;;;;;27.10;44.40;;;;;;1614670;71;734;-71
2022/06/21 03:56:50;;;;;;;;;;;27.20;44.40;;;;;;1607006;71;692;-71
2022/06/21 03:58:53;;;;;;;;;;;27.20;44.40;;;;;;1604769;71;1587;-72
2022/06/21 04:00:57;;;;;;;;;;;27.20;44.40;;;;;;1612686;71;637;-70
2022/06/21 04:03:10;;;;;;;;;;;27.10;44.40;;;;;;1621019;71;1160;-70
2022/06/21 04:05:13;;;;;;;;;;;27.20;44.40;;;;;;1598973;71;1830;-71
2022/06/21 04:07:23;;;;;;;;;;;27.10;44.40;;;;;;1617221;71;1684;-69
2022/06/21 04:09:26;;;;;;;;;;;27.20;44.40;;;;;;1617674;71;644;-70
2022/06/21 04:11:36;;;;;;;;;;;27.20;44.40;;;;;;1621265;71;1889;-70
2022/06/21 04:13:39;;;;;;;;;;;27.20;44.30;;;;;;1611238;71;1809;-71
2022/06/21 04:15:43;;;;;;;;;;;27.20;44.20;;;;;;1618791;71;1712;-70
2022/06/21 04:17:45;;;;;;;;;;;27.10;44.30;;;;;;1635456;71;794;-71
2022/06/21 04:19:52;;;;;;;;;;;27.20;44.30;;;;;;1621172;71;777;-71
2022/06/21 04:21:58;;;;;;;;;;;27.10;44.30;;;;;;1611742;71;829;-70
2022/06/21 04:24:10;;;;;;;;;;;27.20;44.20;;;;;;1611346;71;2112;-71
2022/06/21 04:26:14;;;;;;;;;;;27.10;44.30;;;;;;1612719;71;750;-69
2022/06/21 04:28:20;;;;;;;;;;;27.10;44.30;;;;;;1617794;71;1802;-70
2022/06/21 04:30:33;;;;;;;;;;;27.20;44.20;;;;;;1605515;71;1935;-69
2022/06/21 04:32:39;;;;;;;;;;;27.10;44.20;;;;;;1613798;71;693;-68
2022/06/21 04:34:45;;;;;;;;;;;27.10;44.20;;;;;;1599250;71;1615;-70
2022/06/21 04:36:48;;;;;;;;;;;27.20;44.20;;;;;;1613070;71;932;-69
2022/06/21 04:38:55;;;;;;;;;;;27.10;44.20;;;;;;1632874;71;754;-70
2022/06/21 04:40:58;;;;;;;;;;;27.20;44.20;;;;;;1620455;71;918;-69
2022/06/21 04:43:10;;;;;;;;;;;27.20;44.20;;;;;;1623966;71;1182;-70
2022/06/21 04:45:14;;;;;;;;;;;27.10;44.20;;;;;;1620632;71;637;-70
2022/06/21 04:47:20;;;;;;;;;;;27.10;44.20;;;;;;1616507;71;730;-68
2022/06/21 04:49:23;;;;;;;;;;;27.20;44.10;;;;;;1617802;71;824;-68
2022/06/21 04:51:39;;;;;;;;;;;27.10;44.00;;;;;;1614687;71;1940;-68
2022/06/21 04:53:48;;;;;;;;;;;27.10;44.00;;;;;;1608025;73;1148;-67
2022/06/21 04:55:52;;;;;;;;;;;27.20;44.00;;;;;;1606618;71;1928;-68
2022/06/21 04:57:54;;;;;;;;;;;27.10;44.00;;;;;;1625120;71;1978;-68
2022/06/21 04:59:57;;;;;;;;;;;27.20;44.00;;;;;;1616613;71;707;-70
2022/06/21 05:01:59;;;;;;;;;;;27.10;43.90;;;;;;1611877;71;678;-68
2022/06/21 05:04:06;;;;;;;;;;;27.10;44.00;;;;;;1615867;71;1158;-68
2022/06/21 05:06:07;;;;;;;;;;;27.10;43.90;;;;;;1615066;71;792;-68
2022/06/21 05:08:11;;;;;;;;;;;27.20;44.00;;;;;;1636074;71;789;-68
2022/06/21 05:10:17;;;;;;;;;;;27.20;43.90;;;;;;1600975;71;1922;-70
2022/06/21 05:12:20;;;;;;;;;;;27.10;43.90;;;;;;1617798;71;657;-68
2022/06/21 05:14:23;;;;;;;;;;;27.10;43.80;;;;;;1613676;71;1172;-68
2022/06/21 05:16:26;;;;;;;;;;;27.20;43.80;;;;;;1620231;71;738;-69
2022/06/21 05:18:32;;;;;;;;;;;27.10;43.80;;;;;;1596184;72;706;-68
2022/06/21 05:20:35;;;;;;;;;;;27.10;43.80;;;;;;1618389;71;1881;-70
2022/06/21 05:22:37;;;;;;;;;;;27.20;43.90;;;;;;1616043;71;720;-71
2022/06/21 05:24:39;;;;;;;;;;;27.20;44.00;;;;;;1618787;71;707;-68
2022/06/21 05:26:43;;;;;;;;;;;27.30;43.90;;;;;;1618823;71;781;-67
2022/06/21 05:28:46;;;;;;;;;;;27.30;43.70;;;;;;1626227;71;716;-69
2022/06/21 05:30:49;;;;;;;;;;;27.20;43.70;;;;;;1617934;71;1928;-69
2022/06/21 05:32:53;;;;;;;;;;;27.30;43.70;;;;;;1616851;71;1149;-69
2022/06/21 05:34:56;;;;;;;;;;;27.20;43.70;;;;;;1606768;71;1813;-70
2022/06/21 05:37:02;;;;;;;;;;;27.20;43.70;;;;;;1613053;71;838;-68
2022/06/21 05:39:09;;;;;;;;;;;27.30;43.80;;;;;;1627419;71;750;-69
2022/06/21 05:41:29;;;;;;;;;;;27.20;43.70;;;;;;1613112;71;1565;-68
2022/06/21 05:43:19;;;;;;;;;;;27.30;43.80;;;;;;1589882;71;1839;-66
2022/06/21 05:45:21;;;;;;;;;;;27.20;43.70;;;;;;1618938;71;717;-68
2022/06/21 05:47:27;;;;;;;;;;;27.30;43.70;;;;;;1615076;71;793;-69
2022/06/21 05:49:33;;;;;;;;;;;27.20;43.70;;;;;;1621410;71;777;-68
2022/06/21 05:51:34;;;;;;;;;;;27.30;43.70;;;;;;1621119;71;1945;-68
2022/06/21 05:53:38;;;;;;;;;;;27.30;43.60;;;;;;1601010;71;1148;-68
2022/06/21 05:55:41;;;;;;;;;;;27.10;43.60;;;;;;1631319;71;1673;-68
2022/06/21 05:57:50;;;;;;;;;;;27.20;43.50;;;;;;1608101;71;655;-68
2022/06/21 05:59:52;;;;;;;;;;;27.20;43.50;;;;;;1632477;71;766;-68
2022/06/21 06:01:54;;;;;;;;;;;27.10;43.50;;;;;;1619641;71;771;-68
2022/06/21 06:04:01;;;;;;;;;;;27.10;43.50;;;;;;1614219;71;1125;-68
2022/06/21 06:06:05;;;;;;;;;;;27.10;43.40;;;;;;1617261;71;802;-68
2022/06/21 06:08:08;;;;;;;;;;;27.10;43.40;;;;;;1614912;71;1646;-68
2022/06/21 06:10:10;;;;;;;;;;;27.10;43.40;;;;;;1606673;71;748;-68
2022/06/21 06:12:13;;;;;;;;;;;27.10;43.40;;;;;;1618087;71;755;-68
2022/06/21 06:14:15;;;;;;;;;;;27.10;43.30;;;;;;1621480;71;1137;-68
2022/06/21 06:16:27;;;;;;;;;;;27.10;43.30;;;;;;1633373;71;689;-69
2022/06/21 06:18:40;;;;;;;;;;;27.10;43.30;;;;;;1622776;71;699;-68
2022/06/21 06:20:42;;;;;;;;;;;27.10;43.30;;;;;;1624532;71;1726;-67
2022/06/21 06:22:46;;;;;;;;;;;27.10;43.20;;;;;;1623231;71;1149;-68
2022/06/21 06:24:49;;;;;;;;;;;27.10;43.20;;;;;;1625130;71;777;-68
2022/06/21 06:26:53;;;;;;;;;;;27.10;43.20;;;;;;1615266;71;1551;-68
2022/06/21 06:28:56;;;;;;;;;;;27.10;43.10;;;;;;1628202;71;672;-68
2022/06/21 06:31:06;;;;;;;;;;;27.10;43.10;;;;;;1630229;71;1918;-68
2022/06/21 06:33:09;;;;;;;;;;;27.10;43.10;;;;;;1610646;71;1676;-68
2022/06/21 06:35:18;;;;;;;;;;;27.10;43.10;;;;;;1607454;71;687;-69
2022/06/21 06:37:36;;;;;;;;;;;27.10;43.10;;;;;;1626017;71;703;-68
2022/06/21 06:39:37;;;;;;;;;;;27.10;43.10;;;;;;1606903;71;1488;-69
2022/06/21 06:41:41;;;;;;;;;;;27.10;43.10;;;;;;1615352;72;780;-68
2022/06/21 06:43:45;;;;;;;;;;;27.10;43.10;;;;;;1605285;71;1795;-68
2022/06/21 06:45:46;;;;;;;;;;;27.10;43.10;;;;;;1608454;71;695;-68
2022/06/21 06:48:03;;;;;;;;;;;27.10;43.10;;;;;;1610196;71;686;-68
2022/06/21 06:50:20;;;;;;;;;;;27.00;43.00;;;;;;1602940;71;1449;-68
2022/06/21 06:52:22;;;;;;;;;;;27.10;43.00;;;;;;1606785;72;1916;-68
2022/06/21 06:54:26;;;;;;;;;;;27.00;43.00;;;;;;1609000;71;1136;-68
2022/06/21 06:56:30;;;;;;;;;;;27.10;43.00;;;;;;1618087;71;685;-68
2022/06/21 06:58:36;;;;;;;;;;;27.00;43.00;;;;;;1602582;71;724;-69
2022/06/21 07:00:42;;;;;;;;;;;27.00;43.00;;;;;;1608091;71;742;-71
2022/06/21 07:02:46;;;;;;;;;;;27.10;42.80;;;;;;1609133;71;1663;-70
2022/06/21 07:04:49;;;;;;;;;;;27.00;42.80;;;;;;1591262;71;3044;-70
2022/06/21 07:06:53;;;;;;;;;;;27.10;42.80;;;;;;1547284;75;656;-69
2022/06/21 07:08:56;;;;;;;;;;;27.00;42.80;;;;;;1543744;75;1045;-69
2022/06/21 07:10:58;;;;;;;;;;;27.00;42.80;;;;;;1539429;75;1933;-70
2022/06/21 07:13:00;;;;;;;;;;;26.90;42.10;;;;;;1536432;75;659;-71
2022/06/21 07:15:03;;;;;;;;;;;26.90;42.10;;;;;;1544431;75;1211;-72
2022/06/21 07:17:09;;;;;;;;;;;27.00;42.60;;;;;;1551736;75;681;-71
2022/06/21 07:19:11;;;;;;;;;;;27.00;42.60;;;;;;1551476;75;1138;-71
2022/06/21 07:21:14;;;;;;;;;;;27.00;42.40;;;;;;1538604;75;656;-72
2022/06/21 07:23:17;;;;;;;;;;;27.00;42.40;;;;;;1534503;75;1472;-67
2022/06/21 07:25:39;;;;;;;;;;;27.00;42.30;;;;;;1552283;75;1056;-68
2022/06/21 07:27:42;;;;;;;;;;;27.00;42.10;;;;;;1551149;75;574;-67
2022/06/21 07:29:45;;;;;;;;;;;27.00;42.00;;;;;;1547845;75;655;-70
2022/06/21 07:31:49;;;;;;;;;;;27.10;41.90;;;;;;1557730;75;1921;-69
2022/06/21 07:33:52;;;;;;;;;;;27.00;41.90;;;;;;1556866;75;1558;-69
2022/06/21 07:35:56;;;;;;;;;;;26.90;41.20;;;;;;1556960;75;733;-70
2022/06/21 07:37:59;;;;;;;;;;;27.00;41.80;;;;;;1547860;75;682;-69
2022/06/21 07:40:09;;;;;;;;;;;27.00;41.80;;;;;;1547561;75;1830;-70
2022/06/21 07:42:13;;;;;;;;;;;26.90;41.00;;;;;;1558652;75;671;-70
2022/06/21 07:44:16;;;;;;;;;;;27.00;41.70;;;;;;1562412;75;1183;-70
2022/06/21 07:46:20;;;;;;;;;;;27.00;41.70;;;;;;1553765;75;1364;-69
2022/06/21 07:48:26;;;;;;;;;;;27.00;41.70;;;;;;1553541;75;704;-69
2022/06/21 07:50:45;;;;;;;;;;;26.90;41.00;;;;;;1555747;75;685;-68
2022/06/21 07:52:51;;;;;;;;;;;27.00;41.50;;;;;;1554842;75;621;-68
2022/06/21 07:54:58;;;;;;;;;;;27.00;41.50;;;;;;1558463;75;1109;-70
2022/06/21 07:57:10;;;;;;;;;;;27.00;41.40;;;;;;1553112;75;692;-69
2022/06/21 07:59:19;;;;;;;;;;;27.00;41.40;;;;;;1554503;75;1840;-71
2022/06/21 08:08:24;;;;;;;;;;;26.90;40.50;;;;;;1552122;75;1670;-70
2022/06/21 08:10:34;;;;;;;;;;;26.90;40.60;;;;;;1541895;75;756;-69
2022/06/21 08:12:35;;;;;;;;;;;27.00;41.30;;;;;;1558140;75;1935;-70
2022/06/21 08:14:37;;;;;;;;;;;26.90;40.50;;;;;;1549170;75;1161;-69
2022/06/21 08:16:43;;;;;;;;;;;26.90;40.50;;;;;;1551306;75;941;-69
2022/06/21 08:18:53;;;;;;;;;;;27.00;41.00;;;;;;1547430;75;1488;-70
2022/06/21 08:21:00;;;;;;;;;;;27.00;41.00;;;;;;1543322;75;695;-71
2022/06/21 08:23:03;;;;;;;;;;;27.10;40.80;;;;;;1549554;75;1039;-71
2022/06/21 08:25:10;;;;;;;;;;;27.00;40.50;;;;;;1525620;75;1114;-70
2022/06/21 08:27:20;;;;;;;;;;;27.00;40.00;;;;;;1551684;75;1901;-69
2022/06/21 08:29:24;;;;;;;;;;;27.00;39.70;;;;;;1549113;75;686;-69
2022/06/21 08:31:34;;;;;;;;;;;26.90;38.50;;;;;;1553443;75;1907;-68
2022/06/21 08:33:49;;;;;;;;;;;26.80;37.60;;;;;;1557297;75;632;-68
2022/06/21 08:35:53;;;;;;;;;;;26.70;38.60;;;;;;1551964;75;692;-64
2022/06/21 08:38:11;;;;;;;;;;;26.70;38.50;;;;;;1559905;75;621;-70
2022/06/21 08:40:18;;;;;;;;;;;26.70;38.70;;;;;;1552663;75;706;-67
2022/06/21 08:42:38;;;;;;;;;;;26.60;39.00;;;;;;1555501;75;703;-68
2022/06/21 08:47:35;;;;;;;;;;;26.60;38.90;;;;;;1559792;75;1932;-68
2022/06/21 08:49:38;;;;;;;;;;;26.60;38.90;;;;;;1559977;75;659;-69
2022/06/21 08:51:51;;;;;;;;;;;26.40;38.70;;;;;;1549353;75;2049;-66
2022/06/21 08:54:04;;;;;;;;;;;26.50;38.60;;;;;;1543540;75;2049;-69
2022/06/21 08:56:08;;;;;;;;;;;26.50;38.70;;;;;;1556685;75;706;-73
2022/06/21 08:58:11;;;;;;;;;;;26.50;38.60;;;;;;1545104;75;624;-68
2022/06/21 09:00:21;;;;;;;;;;;26.50;38.60;;;;;;1550858;75;936;-68
2022/06/21 09:02:37;;;;;;;;;;;26.40;38.40;;;;;;1552629;75;707;-69
2022/06/21 09:04:43;;;;;;;;;;;26.50;38.60;;;;;;1552489;75;1149;-68
2022/06/21 09:06:50;;;;;;;;;;;26.40;38.50;;;;;;1549259;75;1589;-69
2022/06/21 09:08:53;;;;;;;;;;;26.40;38.40;;;;;;1529111;75;1135;-69
2022/06/21 09:10:57;;;;;;;;;;;26.40;38.60;;;;;;1544241;75;2139;-71
2022/06/21 09:13:13;;;;;;;;;;;26.30;38.50;;;;;;1549798;75;1908;-69
2022/06/21 09:15:30;;;;;;;;;;;26.30;38.60;;;;;;1538902;75;1480;-70
2022/06/21 09:17:45;;;;;;;;;;;26.30;38.70;;;;;;1539922;75;813;-71
2022/06/21 09:19:52;;;;;;;;;;;26.30;38.30;;;;;;1522150;75;1088;-71
2022/06/21 09:22:04;;;;;;;;;;;26.20;38.50;;;;;;1541152;75;1829;-70
2022/06/21 09:24:08;;;;;;;;;;;26.20;38.40;;;;;;1546034;75;1160;-72
2022/06/21 09:26:28;;;;;;;;;;;26.20;38.90;;;;;;1535936;75;700;-71
2022/06/21 09:28:47;;;;;;;;;;;26.20;38.20;;;;;;1547430;75;585;-69
2022/06/21 09:30:53;;;;;;;;;;;26.00;38.00;;;;;;1549051;75;1829;-70
2022/06/21 09:33:13;;;;;;;;;;;25.90;37.80;;;;;;1531972;75;1936;-70
2022/06/21 09:35:16;;;;;;;;;;;26.00;38.90;;;;;;1538716;75;1190;-70
2022/06/21 09:37:20;;;;;;;;;;;26.00;38.50;;;;;;1543725;75;1182;-70
2022/06/21 09:39:26;;;;;;;;;;;25.90;37.90;;;;;;1553185;75;635;-70
2022/06/21 09:41:35;;;;;;;;;;;25.90;37.80;;;;;;1548139;75;949;-70
2022/06/21 09:43:42;;;;;;;;;;;25.90;38.30;;;;;;1548487;75;1201;-70
2022/06/21 09:45:49;;;;;;;;;;;25.70;37.80;;;;;;1543605;75;1579;-71
2022/06/21 09:47:58;;;;;;;;;;;25.70;38.10;;;;;;1551006;74;701;-70
2022/06/21 09:50:12;;;;;;;;;;;25.50;38.20;;;;;;1550708;75;1802;-70
2022/06/21 09:52:18;;;;;;;;;;;25.50;38.00;;;;;;1538513;75;1914;-71
2022/06/21 09:54:22;;;;;;;;;;;25.50;38.80;;;;;;1541521;75;1184;-70
2022/06/21 09:56:34;;;;;;;;;;;25.60;39.00;;;;;;1551916;75;1807;-71
2022/06/21 09:58:54;;;;;;;;;;;25.60;38.60;;;;;;1548672;75;1884;-70
2022/06/21 10:00:58;;;;;;;;;;;25.60;38.90;;;;;;1541715;75;694;-71
2022/06/21 10:03:02;;;;;;;;;;;25.60;39.00;;;;;;1540901;75;687;-72
2022/06/21 10:05:05;;;;;;;;;;;25.70;39.00;;;;;;1541550;75;1855;-70
2022/06/21 10:07:25;;;;;;;;;;;25.80;38.80;;;;;;1540154;75;1003;-70
2022/06/21 10:09:32;;;;;;;;;;;25.80;38.70;;;;;;1553645;75;700;-70
2022/06/21 10:11:36;;;;;;;;;;;25.70;38.50;;;;;;1540337;75;1917;-69
2022/06/21 10:13:52;;;;;;;;;;;25.70;38.50;;;;;;1546916;75;1168;-68
2022/06/21 10:15:58;;;;;;;;;;;25.70;38.90;;;;;;1541284;75;1046;-71
2022/06/21 10:18:08;;;;;;;;;;;25.70;39.10;;;;;;1549014;75;635;-70
2022/06/21 10:20:27;;;;;;;;;;;25.70;39.00;;;;;;1543764;75;737;-69
2022/06/21 10:22:39;;;;;;;;;;;25.70;39.20;;;;;;1541907;75;1477;-70
2022/06/21 10:24:46;;;;;;;;;;;25.70;39.30;;;;;;1548925;75;1172;-68
2022/06/21 10:26:50;;;;;;;;;;;25.80;39.30;;;;;;1545158;75;1150;-69
2022/06/21 10:28:59;;;;;;;;;;;25.80;39.40;;;;;;1551360;75;742;-69
2022/06/21 10:31:18;;;;;;;;;;;25.90;39.50;;;;;;1544417;75;1333;-72
2022/06/21 10:33:27;;;;;;;;;;;25.80;39.50;;;;;;1541033;75;1949;-70
2022/06/21 10:35:40;;;;;;;;;;;25.80;39.30;;;;;;1549779;75;1445;-71
2022/06/21 10:37:49;;;;;;;;;;;25.80;39.40;;;;;;1541306;75;689;-70
2022/06/21 10:40:10;;;;;;;;;;;25.90;39.50;;;;;;1561239;75;751;-72
2022/06/21 10:44:44;;;;;;;;;;;25.90;39.50;;;;;;1548145;75;1183;-71
2022/06/21 10:46:50;;;;;;;;;;;25.90;39.80;;;;;;1546789;75;1129;-71
2022/06/21 10:48:56;;;;;;;;;;;25.90;39.60;;;;;;1545385;75;1004;-71
2022/06/21 10:51:00;;;;;;;;;;;25.90;39.60;;;;;;1550536;75;688;-70
2022/06/21 10:53:04;;;;;;;;;;;26.00;40.20;;;;;;1546593;75;1962;-69
2022/06/21 10:55:08;;;;;;;;;;;26.00;40.20;;;;;;1553356;75;1199;-68
2022/06/21 10:57:28;;;;;;;;;;;26.00;40.30;;;;;;1540906;75;679;-70
2022/06/21 11:01:59;;;;;;;;;;;26.00;40.20;;;;;;1543983;75;733;-70
2022/06/21 11:04:05;;;;;;;;;;;26.00;40.00;;;;;;1537898;75;1720;-69
2022/06/21 11:06:15;;;;;;;;;;;26.00;40.20;;;;;;1544151;75;690;-69
2022/06/21 11:08:35;;;;;;;;;;;26.00;40.20;;;;;;1548332;75;1504;-69
2022/06/21 11:10:38;;;;;;;;;;;26.00;40.40;;;;;;1544629;75;614;-69
2022/06/21 11:12:53;;;;;;;;;;;26.00;40.50;;;;;;1546862;75;1909;-70
2022/06/21 11:15:14;;;;;;;;;;;26.00;40.60;;;;;;1546396;75;1194;-70
2022/06/21 11:17:18;;;;;;;;;;;26.10;40.60;;;;;;1549692;75;776;-70
2022/06/21 11:19:22;;;;;;;;;;;26.10;40.50;;;;;;1552081;75;1774;-70
2022/06/21 11:21:37;;;;;;;;;;;26.10;40.50;;;;;;1546308;75;624;-70
2022/06/21 11:23:43;;;;;;;;;;;26.10;40.50;;;;;;1550898;75;1450;-68
2022/06/21 11:25:53;;;;;;;;;;;26.20;40.70;;;;;;1549715;75;680;-70
2022/06/21 11:27:59;;;;;;;;;;;26.10;40.50;;;;;;1553735;75;1051;-69
2022/06/21 11:30:03;;;;;;;;;;;26.10;40.60;;;;;;1546189;75;2344;-69
2022/06/21 11:32:12;;;;;;;;;;;26.10;41.10;;;;;;1547595;75;1920;-68
2022/06/21 11:34:21;;;;;;;;;;;26.10;41.00;;;;;;1544427;75;1824;-69
2022/06/21 11:36:28;;;;;;;;;;;26.10;41.50;;;;;;1544184;75;699;-68
2022/06/21 11:38:33;;;;;;;;;;;26.20;41.10;;;;;;1548676;75;1707;-66
2022/06/21 11:40:51;;;;;;;;;;;26.10;41.50;;;;;;1550474;75;2004;-69
2022/06/21 11:42:53;;;;;;;;;;;26.10;41.40;;;;;;1540115;75;748;-68
2022/06/21 11:45:14;;;;;;;;;;;26.10;41.70;;;;;;1551519;75;1126;-67
2022/06/21 11:47:18;;;;;;;;;;;26.10;41.90;;;;;;1541932;75;877;-70
2022/06/21 11:49:39;;;;;;;;;;;26.00;41.80;;;;;;1539056;76;1069;-70
2022/06/21 11:51:58;;;;;;;;;;;26.10;41.80;;;;;;1542550;75;648;-68
2022/06/21 11:54:03;;;;;;;;;;;26.10;42.10;;;;;;1537334;75;1174;-70
2022/06/21 11:56:13;;;;;;;;;;;26.10;42.10;;;;;;1536037;75;694;-68
2022/06/21 11:58:19;;;;;;;;;;;26.10;42.00;;;;;;1540282;75;703;-72
2022/06/21 12:00:23;;;;;;;;;;;26.20;42.00;;;;;;1540542;75;1487;-71
2022/06/21 12:02:32;;;;;;;;;;;26.20;42.00;;;;;;1552873;75;1992;-68
2022/06/21 12:04:42;;;;;;;;;;;26.20;42.00;;;;;;1556015;75;1603;-70
2022/06/21 12:06:48;;;;;;;;;;;26.20;42.30;;;;;;1545374;75;1845;-69
2022/06/21 12:08:51;;;;;;;;;;;26.30;42.00;;;;;;1559823;75;713;-69
2022/06/21 12:10:58;;;;;;;;;;;26.30;42.00;;;;;;1547463;75;1949;-69
2022/06/21 12:13:08;;;;;;;;;;;26.30;42.30;;;;;;1559789;75;1918;-69
2022/06/21 12:15:11;;;;;;;;;;;26.30;42.10;;;;;;1550404;75;1183;-69
2022/06/21 12:17:21;;;;;;;;;;;26.30;42.10;;;;;;1543819;75;1660;-70
2022/06/21 12:19:25;;;;;;;;;;;26.30;42.50;;;;;;1543213;75;1713;-69
2022/06/21 12:21:27;;;;;;;;;;;26.30;42.40;;;;;;1559086;75;933;-69
2022/06/21 12:23:36;;;;;;;;;;;26.30;42.30;;;;;;1560228;75;690;-70
2022/06/21 12:25:38;;;;;;;;;;;26.40;42.20;;;;;;1552695;75;1165;-70
2022/06/21 12:27:40;;;;;;;;;;;26.30;42.30;;;;;;1552152;75;640;-70
2022/06/21 12:29:42;;;;;;;;;;;26.50;42.10;;;;;;1548717;75;1005;-71
2022/06/21 12:31:49;;;;;;;;;;;26.40;42.60;;;;;;1556829;75;729;-71
2022/06/21 12:33:52;;;;;;;;;;;26.40;42.30;;;;;;1549681;75;1911;-72
2022/06/21 12:35:59;;;;;;;;;;;26.40;42.20;;;;;;1554737;75;715;-70
2022/06/21 12:38:00;;;;;;;;;;;26.40;42.60;;;;;;1561293;75;702;-70
2022/06/21 12:40:07;;;;;;;;;;;26.40;42.50;;;;;;1553687;75;725;-71
2022/06/21 12:42:29;;;;;;;;;;;26.40;42.80;;;;;;1536752;75;1033;-71
2022/06/21 12:44:49;;;;;;;;;;;26.30;42.60;;;;;;1548621;75;1550;-70
2022/06/21 12:47:01;;;;;;;;;;;26.30;42.60;;;;;;1554696;75;699;-69
2022/06/21 12:49:21;;;;;;;;;;;26.40;42.90;;;;;;1559423;75;997;-69